createdAt,value
2022-12-25T00:00:30.633Z,53.01
2022-12-25T00:01:30.634Z,62.04
2022-12-25T00:02:30.915Z,60.91
2022-12-25T00:03:30.797Z,65.90
2022-12-25T00:04:30.610Z,53.82
2022-12-25T00:05:30.704Z,61.07
2022-12-25T00:06:30.677Z,60.75
2022-12-25T00:07:30.507Z,62.52
2022-12-25T00:08:30.688Z,64.29
2022-12-25T00:09:30.612Z,58.17
2022-12-25T00:10:30.685Z,63.49
2022-12-25T00:11:31.004Z,61.39
2022-12-25T00:12:30.608Z,62.52
2022-12-25T00:13:30.638Z,62.52
2022-12-25T00:14:30.551Z,58.65
2022-12-25T00:15:30.577Z,52.69
2022-12-25T00:16:30.718Z,52.37
2022-12-25T00:17:30.547Z,59.14
2022-12-25T00:18:30.528Z,58.17
2022-12-25T00:19:30.554Z,62.04
2022-12-25T00:20:30.570Z,53.98
2022-12-25T00:21:30.582Z,59.94
2022-12-25T00:22:30.584Z,60.10
2022-12-25T00:23:30.496Z,55.11
2022-12-25T00:24:30.501Z,58.65
2022-12-25T00:25:30.477Z,55.43
2022-12-25T00:26:30.519Z,65.10
2022-12-25T00:27:30.577Z,56.40
2022-12-25T00:28:30.523Z,59.46
2022-12-25T00:29:30.583Z,60.42
2022-12-25T00:30:30.489Z,60.91
2022-12-25T00:31:30.584Z,52.53
2022-12-25T00:32:30.527Z,52.37
2022-12-25T00:33:30.469Z,52.53
2022-12-25T00:34:30.422Z,55.43
2022-12-25T00:35:30.471Z,59.30
2022-12-25T00:36:31.947Z,61.71
2022-12-25T00:37:30.490Z,57.36
2022-12-25T00:38:30.415Z,59.62
2022-12-25T00:39:30.384Z,52.53
2022-12-25T00:40:30.465Z,55.11
2022-12-25T00:41:30.385Z,57.69
2022-12-25T00:42:31.048Z,58.49
2022-12-25T00:43:30.283Z,53.82
2022-12-25T00:44:30.410Z,58.65
2022-12-25T00:45:30.301Z,52.53
2022-12-25T00:46:30.303Z,55.59
2022-12-25T00:47:30.257Z,54.30
2022-12-25T00:48:30.282Z,55.11
2022-12-25T00:49:30.273Z,52.85
2022-12-25T00:50:30.241Z,52.21
2022-12-25T00:51:30.204Z,51.24
2022-12-25T00:52:30.215Z,55.11
2022-12-25T00:53:30.237Z,55.11
2022-12-25T00:54:30.265Z,57.20
2022-12-25T00:55:30.253Z,56.40
2022-12-25T00:56:30.190Z,51.24
2022-12-25T00:57:30.329Z,51.08
2022-12-25T00:58:30.253Z,53.01
2022-12-25T00:59:30.267Z,56.24
2022-12-25T01:00:30.498Z,60.10
2022-12-25T01:01:30.677Z,59.78
2022-12-25T01:02:30.411Z,55.91
2022-12-25T01:03:30.356Z,53.66
2022-12-25T01:04:30.228Z,59.14
2022-12-25T01:05:30.211Z,55.27
2022-12-25T01:06:30.254Z,58.49
2022-12-25T01:07:30.131Z,62.04
2022-12-25T01:08:30.195Z,52.37
2022-12-25T01:09:30.172Z,52.85
2022-12-25T01:10:30.210Z,61.71
2022-12-25T01:11:30.417Z,53.82
2022-12-25T01:12:30.157Z,54.95
2022-12-25T01:13:30.248Z,56.88
2022-12-25T01:14:30.184Z,55.43
2022-12-25T01:15:41.186Z,57.36
2022-12-25T01:16:30.205Z,51.72
2022-12-25T01:17:31.156Z,51.72
2022-12-25T01:18:30.136Z,54.46
2022-12-25T01:19:30.135Z,58.01
2022-12-25T01:20:30.064Z,52.05
2022-12-25T01:21:30.097Z,61.07
2022-12-25T01:22:30.185Z,54.95
2022-12-25T01:23:30.113Z,51.40
2022-12-25T01:24:30.080Z,56.07
2022-12-25T01:25:30.077Z,54.95
2022-12-25T01:26:30.114Z,52.05
2022-12-25T01:27:30.045Z,51.40
2022-12-25T01:28:30.099Z,55.43
2022-12-25T01:29:30.057Z,53.01
2022-12-25T01:30:29.951Z,53.50
2022-12-25T01:31:30.086Z,51.24
2022-12-25T01:32:30.161Z,53.17
2022-12-25T01:33:31.079Z,56.88
2022-12-25T01:34:30.989Z,55.11
2022-12-25T01:35:30.001Z,52.85
2022-12-25T01:36:30.017Z,53.17
2022-12-25T01:37:30.043Z,53.17
2022-12-25T01:38:30.089Z,55.75
2022-12-25T01:39:30.002Z,56.88
2022-12-25T01:40:30.048Z,54.14
2022-12-25T01:41:29.962Z,54.79
2022-12-25T01:42:30.045Z,55.91
2022-12-25T01:43:29.969Z,53.98
2022-12-25T01:44:29.863Z,54.79
2022-12-25T01:45:29.892Z,52.05
2022-12-25T01:46:29.886Z,51.56
2022-12-25T01:47:30.875Z,52.21
2022-12-25T01:48:29.897Z,55.59
2022-12-25T01:49:29.858Z,58.65
2022-12-25T01:50:29.859Z,58.01
2022-12-25T01:51:29.861Z,55.91
2022-12-25T01:52:29.821Z,53.01
2022-12-25T01:53:29.806Z,55.11
2022-12-25T01:54:29.796Z,58.17
2022-12-25T01:55:29.822Z,51.88
2022-12-25T01:56:29.791Z,51.56
2022-12-25T01:57:29.749Z,53.01
2022-12-25T01:58:29.843Z,55.11
2022-12-25T01:59:29.865Z,57.20
2022-12-25T02:00:29.837Z,56.56
2022-12-25T02:01:29.933Z,57.85
2022-12-25T02:02:30.032Z,59.14
2022-12-25T02:03:29.919Z,53.33
2022-12-25T02:04:29.783Z,55.43
2022-12-25T02:05:29.897Z,58.65
2022-12-25T02:06:29.773Z,58.01
2022-12-25T02:07:29.703Z,58.81
2022-12-25T02:08:29.754Z,58.65
2022-12-25T02:09:29.743Z,52.53
2022-12-25T02:10:29.728Z,52.69
2022-12-25T02:11:29.761Z,57.52
2022-12-25T02:12:29.726Z,55.11
2022-12-25T02:13:29.737Z,59.30
2022-12-25T02:14:29.737Z,58.33
2022-12-25T02:15:29.734Z,58.81
2022-12-25T02:16:30.108Z,58.01
2022-12-25T02:17:29.774Z,61.23
2022-12-25T02:18:29.734Z,63.81
2022-12-25T02:19:29.730Z,59.46
2022-12-25T02:20:29.716Z,56.56
2022-12-25T02:21:29.704Z,52.05
2022-12-25T02:22:29.790Z,52.05
2022-12-25T02:23:29.653Z,54.95
2022-12-25T02:24:29.786Z,52.05
2022-12-25T02:25:29.625Z,55.59
2022-12-25T02:26:29.722Z,57.36
2022-12-25T02:27:29.749Z,60.26
2022-12-25T02:28:29.757Z,58.01
2022-12-25T02:29:29.618Z,58.17
2022-12-25T02:30:29.648Z,51.72
2022-12-25T02:31:29.647Z,52.53
2022-12-25T02:32:29.613Z,57.52
2022-12-25T02:33:29.680Z,51.40
2022-12-25T02:34:29.629Z,51.24
2022-12-25T02:35:29.589Z,57.04
2022-12-25T02:36:29.587Z,60.10
2022-12-25T02:37:29.587Z,52.05
2022-12-25T02:38:29.607Z,50.92
2022-12-25T02:39:29.564Z,50.76
2022-12-25T02:40:29.581Z,50.60
2022-12-25T02:41:29.620Z,51.08
2022-12-25T02:42:29.559Z,55.11
2022-12-25T02:43:29.548Z,55.91
2022-12-25T02:44:29.558Z,53.17
2022-12-25T02:45:29.553Z,60.75
2022-12-25T02:46:29.556Z,57.04
2022-12-25T02:47:29.541Z,62.68
2022-12-25T02:48:30.529Z,59.14
2022-12-25T02:49:29.592Z,58.49
2022-12-25T02:50:29.501Z,55.27
2022-12-25T02:51:29.568Z,59.78
2022-12-25T02:52:29.476Z,50.43
2022-12-25T02:53:29.447Z,53.01
2022-12-25T02:54:29.512Z,54.30
2022-12-25T02:55:29.495Z,56.07
2022-12-25T02:56:29.459Z,56.56
2022-12-25T02:57:30.530Z,59.78
2022-12-25T02:58:29.461Z,58.65
2022-12-25T02:59:29.412Z,50.92
2022-12-25T03:00:29.472Z,51.08
2022-12-25T03:01:29.495Z,54.62
2022-12-25T03:02:29.420Z,51.08
2022-12-25T03:03:29.424Z,57.04
2022-12-25T03:04:29.322Z,54.14
2022-12-25T03:05:29.366Z,54.95
2022-12-25T03:06:29.386Z,51.08
2022-12-25T03:07:29.327Z,50.92
2022-12-25T03:08:29.275Z,51.40
2022-12-25T03:09:29.317Z,58.65
2022-12-25T03:10:29.334Z,57.36
2022-12-25T03:11:30.082Z,51.56
2022-12-25T03:12:29.276Z,51.72
2022-12-25T03:13:29.294Z,50.76
2022-12-25T03:14:29.256Z,56.56
2022-12-25T03:15:29.277Z,58.81
2022-12-25T03:16:29.294Z,57.52
2022-12-25T03:17:29.462Z,51.88
2022-12-25T03:18:29.263Z,51.40
2022-12-25T03:19:29.271Z,56.72
2022-12-25T03:20:29.292Z,55.75
2022-12-25T03:21:29.363Z,61.71
2022-12-25T03:22:29.315Z,53.01
2022-12-25T03:23:29.249Z,60.26
2022-12-25T03:25:02.236Z,57.04
2022-12-25T03:25:29.243Z,59.14
2022-12-25T03:26:29.224Z,52.53
2022-12-25T03:27:29.280Z,59.78
2022-12-25T03:28:29.266Z,58.65
2022-12-25T03:29:31.880Z,50.60
2022-12-25T03:30:30.286Z,50.92
2022-12-25T03:31:29.261Z,50.92
2022-12-25T03:32:29.197Z,59.46
2022-12-25T03:33:45.841Z,55.27
2022-12-25T03:34:31.124Z,54.62
2022-12-25T03:35:29.219Z,55.27
2022-12-25T03:36:29.142Z,58.81
2022-12-25T03:37:29.270Z,53.01
2022-12-25T03:38:29.182Z,50.60
2022-12-25T03:39:29.229Z,50.92
2022-12-25T03:40:29.158Z,50.92
2022-12-25T03:41:29.168Z,51.08
2022-12-25T03:42:29.125Z,51.08
2022-12-25T03:43:29.092Z,51.08
2022-12-25T03:44:29.201Z,50.76
2022-12-25T03:45:29.099Z,54.14
2022-12-25T03:46:29.142Z,60.10
2022-12-25T03:47:29.083Z,63.16
2022-12-25T03:48:29.091Z,58.17
2022-12-25T03:49:29.068Z,50.60
2022-12-25T03:50:29.119Z,50.27
2022-12-25T03:51:29.101Z,52.53
2022-12-25T03:52:29.030Z,55.27
2022-12-25T03:53:30.066Z,53.50
2022-12-25T03:54:29.067Z,55.43
2022-12-25T03:55:29.051Z,58.81
2022-12-25T03:56:29.079Z,58.65
2022-12-25T03:57:29.044Z,54.46
2022-12-25T03:58:29.091Z,55.27
2022-12-25T03:59:29.011Z,50.43
2022-12-25T04:00:29.047Z,50.11
2022-12-25T04:01:29.160Z,50.11
2022-12-25T04:02:29.060Z,50.60
2022-12-25T04:03:29.023Z,50.11
2022-12-25T04:04:28.937Z,50.27
2022-12-25T04:05:28.924Z,51.40
2022-12-25T04:06:28.952Z,53.50
2022-12-25T04:07:28.879Z,56.24
2022-12-25T04:08:28.856Z,53.66
2022-12-25T04:09:29.216Z,50.76
2022-12-25T04:10:28.995Z,51.08
2022-12-25T04:11:28.989Z,53.50
2022-12-25T04:12:28.903Z,56.56
2022-12-25T04:13:28.896Z,52.21
2022-12-25T04:14:28.929Z,57.04
2022-12-25T04:15:29.005Z,53.82
2022-12-25T04:16:28.905Z,57.52
2022-12-25T04:17:28.934Z,58.01
2022-12-25T04:18:28.908Z,53.01
2022-12-25T04:19:28.924Z,54.46
2022-12-25T04:20:28.872Z,51.40
2022-12-25T04:21:28.925Z,51.40
2022-12-25T04:22:29.130Z,55.11
2022-12-25T04:23:28.913Z,57.85
2022-12-25T04:24:28.868Z,54.79
2022-12-25T04:25:28.870Z,54.14
2022-12-25T04:26:28.885Z,51.24
2022-12-25T04:27:28.818Z,51.72
2022-12-25T04:28:30.544Z,49.95
2022-12-25T04:29:28.771Z,50.27
2022-12-25T04:30:28.859Z,50.27
2022-12-25T04:31:28.910Z,52.85
2022-12-25T04:32:28.830Z,54.79
2022-12-25T04:33:28.823Z,54.30
2022-12-25T04:34:28.839Z,55.11
2022-12-25T04:35:28.973Z,52.85
2022-12-25T04:36:28.804Z,56.40
2022-12-25T04:37:28.669Z,56.56
2022-12-25T04:38:28.747Z,54.79
2022-12-25T04:39:28.799Z,53.66
2022-12-25T04:40:28.809Z,56.24
2022-12-25T04:41:28.776Z,52.37
2022-12-25T04:42:28.748Z,53.66
2022-12-25T04:43:28.750Z,57.52
2022-12-25T04:44:28.855Z,50.76
2022-12-25T04:45:28.732Z,53.33
2022-12-25T04:46:28.726Z,50.27
2022-12-25T04:47:28.613Z,50.76
2022-12-25T04:48:28.622Z,54.79
2022-12-25T04:49:28.667Z,55.43
2022-12-25T04:50:28.631Z,53.98
2022-12-25T04:51:28.609Z,50.43
2022-12-25T04:52:28.606Z,57.04
2022-12-25T04:53:28.578Z,54.46
2022-12-25T04:54:28.578Z,56.88
2022-12-25T04:55:28.619Z,51.40
2022-12-25T04:58:37.096Z,53.50
2022-12-25T04:59:37.048Z,53.98
2022-12-25T05:00:37.124Z,52.69
2022-12-25T05:01:37.127Z,53.17
2022-12-25T05:02:37.015Z,51.24
2022-12-25T05:03:36.997Z,50.43
2022-12-25T05:04:36.964Z,53.66
2022-12-25T05:05:36.998Z,57.36
2022-12-25T05:06:36.952Z,50.43
2022-12-25T05:07:36.965Z,57.36
2022-12-25T05:08:36.970Z,52.53
2022-12-25T05:09:36.947Z,54.46
2022-12-25T05:10:36.911Z,57.52
2022-12-25T05:11:37.000Z,51.08
2022-12-25T05:12:36.984Z,54.46
2022-12-25T05:13:36.925Z,55.27
2022-12-25T05:14:36.904Z,55.91
2022-12-25T05:15:37.038Z,55.43
2022-12-25T05:16:36.985Z,57.69
2022-12-25T05:17:36.931Z,52.53
2022-12-25T05:18:36.911Z,58.49
2022-12-25T05:20:11.037Z,60.26
2022-12-25T05:20:40.243Z,60.10
2022-12-25T05:21:38.010Z,57.69
2022-12-25T05:22:36.949Z,52.05
2022-12-25T05:23:36.903Z,53.66
2022-12-25T06:09:13.694Z,49.47
2022-12-25T06:10:13.701Z,54.62
2022-12-25T06:11:13.661Z,45.76
2022-12-25T06:12:13.768Z,50.76
2022-12-25T06:13:13.742Z,60.10
2022-12-25T06:14:13.616Z,57.04
2022-12-25T06:15:14.700Z,56.72
2022-12-25T06:16:13.625Z,53.01
2022-12-25T06:17:13.605Z,55.91
2022-12-25T06:18:13.611Z,57.36
2022-12-25T06:19:13.629Z,59.30
2022-12-25T06:20:13.557Z,53.33
2022-12-25T06:21:13.580Z,55.59
2022-12-25T06:22:13.517Z,55.59
2022-12-25T06:23:13.616Z,57.69
2022-12-25T06:24:20.814Z,59.30
2022-12-25T06:25:15.548Z,61.07
2022-12-25T06:26:13.575Z,55.91
2022-12-25T06:27:13.524Z,53.98
2022-12-25T06:28:13.560Z,56.07
2022-12-25T06:29:13.612Z,54.30
2022-12-25T06:30:13.553Z,54.62
2022-12-25T06:31:13.548Z,52.69
2022-12-25T06:32:13.526Z,54.79
2022-12-25T06:33:13.467Z,59.14
2022-12-25T06:34:13.517Z,57.36
2022-12-25T06:35:13.645Z,53.82
2022-12-25T06:36:13.548Z,52.05
2022-12-25T06:37:13.586Z,54.95
2022-12-25T06:38:13.561Z,53.50
2022-12-25T06:39:13.579Z,58.17
2022-12-25T06:40:13.499Z,54.46
2022-12-25T06:41:13.550Z,54.14
2022-12-25T06:42:14.525Z,55.91
2022-12-25T06:43:13.517Z,57.52
2022-12-25T06:44:13.532Z,53.98
2022-12-25T06:45:13.527Z,53.98
2022-12-25T06:46:13.589Z,54.95
2022-12-25T06:47:14.662Z,54.79
2022-12-25T06:48:13.463Z,54.79
2022-12-25T06:49:13.499Z,57.20
2022-12-25T06:50:14.447Z,51.56
2022-12-25T06:51:14.347Z,54.14
2022-12-25T06:52:13.479Z,57.85
2022-12-25T06:53:13.465Z,56.88
2022-12-25T06:54:13.568Z,56.72
2022-12-25T06:55:13.543Z,51.72
2022-12-25T06:56:13.404Z,47.70
2022-12-25T06:57:13.542Z,55.59
2022-12-25T06:58:13.428Z,57.04
2022-12-25T06:59:13.464Z,58.81
2022-12-25T07:00:13.440Z,55.27
2022-12-25T07:01:13.458Z,57.69
2022-12-25T07:02:13.428Z,52.05
2022-12-25T07:03:13.485Z,47.86
2022-12-25T07:04:13.347Z,58.17
2022-12-25T07:05:13.378Z,55.75
2022-12-25T07:06:13.346Z,57.69
2022-12-25T07:07:13.376Z,60.26
2022-12-25T07:08:13.734Z,61.07
2022-12-25T07:09:13.289Z,59.94
2022-12-25T07:10:13.289Z,60.75
2022-12-25T07:11:13.333Z,58.49
2022-12-25T07:12:13.254Z,54.14
2022-12-25T07:13:13.336Z,55.91
2022-12-25T07:14:13.298Z,56.72
2022-12-25T07:15:13.312Z,58.97
2022-12-25T07:16:13.349Z,64.29
2022-12-25T07:17:13.268Z,60.91
2022-12-25T07:18:13.294Z,61.55
2022-12-25T07:19:13.322Z,63.16
2022-12-25T07:20:13.218Z,62.84
2022-12-25T07:21:13.300Z,61.87
2022-12-25T07:22:13.223Z,61.71
2022-12-25T07:23:13.124Z,57.52
2022-12-25T07:24:13.137Z,55.75
2022-12-25T07:25:13.150Z,63.97
2022-12-25T07:26:13.116Z,63.33
2022-12-25T07:27:13.105Z,62.04
2022-12-25T07:28:13.101Z,60.91
2022-12-25T07:29:13.061Z,59.78
2022-12-25T07:30:13.130Z,62.04
2022-12-25T07:31:13.154Z,65.10
2022-12-25T07:32:13.179Z,64.78
2022-12-25T07:33:13.020Z,63.00
2022-12-25T07:34:13.023Z,66.06
2022-12-25T07:35:13.021Z,63.00
2022-12-25T07:36:13.447Z,61.55
2022-12-25T07:37:13.039Z,62.36
2022-12-25T07:38:13.106Z,59.30
2022-12-25T07:39:13.053Z,58.65
2022-12-25T07:40:13.067Z,57.04
2022-12-25T07:41:13.340Z,59.62
2022-12-25T07:42:13.047Z,62.84
2022-12-25T07:43:13.099Z,57.20
2022-12-25T07:44:13.090Z,58.97
2022-12-25T07:45:13.007Z,57.69
2022-12-25T07:46:13.071Z,64.29
2022-12-25T07:47:13.038Z,59.14
2022-12-25T07:48:16.670Z,60.26
2022-12-25T07:49:14.015Z,56.24
2022-12-25T07:50:12.986Z,58.01
2022-12-25T07:51:12.967Z,58.33
2022-12-25T07:52:13.032Z,59.62
2022-12-25T07:53:12.959Z,63.81
2022-12-25T07:54:13.000Z,60.59
2022-12-25T07:55:12.992Z,60.26
2022-12-25T07:56:12.997Z,64.13
2022-12-25T07:57:12.923Z,58.33
2022-12-25T07:58:14.375Z,60.75
2022-12-25T07:59:13.002Z,59.78
2022-12-25T08:00:12.827Z,63.16
2022-12-25T08:01:12.951Z,64.94
2022-12-25T08:02:13.091Z,65.26
2022-12-25T08:03:13.179Z,61.23
2022-12-25T08:04:12.872Z,60.91
2022-12-25T08:05:12.937Z,55.91
2022-12-25T08:06:12.819Z,58.97
2022-12-25T08:07:12.805Z,57.04
2022-12-25T08:08:12.839Z,57.69
2022-12-25T08:09:13.002Z,58.49
2022-12-25T08:10:12.780Z,58.01
2022-12-25T08:11:12.946Z,60.10
2022-12-25T08:12:12.864Z,62.68
2022-12-25T08:13:14.680Z,55.59
2022-12-25T08:14:13.776Z,57.36
2022-12-25T08:15:12.813Z,58.33
2022-12-25T08:16:12.883Z,58.49
2022-12-25T08:17:12.875Z,56.88
2022-12-25T08:18:12.791Z,56.72
2022-12-25T08:19:12.776Z,57.20
2022-12-25T08:20:12.799Z,54.14
2022-12-25T08:21:13.349Z,57.69
2022-12-25T08:22:12.829Z,61.23
2022-12-25T08:23:12.764Z,56.88
2022-12-25T08:24:12.761Z,56.24
2022-12-25T08:25:12.790Z,56.07
2022-12-25T08:26:12.779Z,58.65
2022-12-25T08:27:12.774Z,55.11
2022-12-25T08:28:12.784Z,58.97
2022-12-25T08:29:24.049Z,53.66
2022-12-25T08:30:12.692Z,67.68
2022-12-25T08:31:12.834Z,63.00
2022-12-25T08:32:12.759Z,59.46
2022-12-25T08:33:12.764Z,58.49
2022-12-25T08:34:12.710Z,58.65
2022-12-25T08:35:12.718Z,57.52
2022-12-25T08:36:13.345Z,58.65
2022-12-25T08:37:12.683Z,60.26
2022-12-25T08:38:12.688Z,65.26
2022-12-25T15:23:20.126Z,58.97
2022-12-25T15:24:16.146Z,57.85
2022-12-25T15:25:14.513Z,60.26
2022-12-25T15:26:15.668Z,62.20
2022-12-25T15:27:14.168Z,60.26
2022-12-25T15:28:14.163Z,58.81
2022-12-25T15:29:14.360Z,58.65
2022-12-25T15:30:32.596Z,63.16
2022-12-25T15:31:15.014Z,62.04
2022-12-25T15:32:14.110Z,67.68
2022-12-25T15:33:14.447Z,62.20
2022-12-25T15:34:14.427Z,67.35
2022-12-25T15:35:14.603Z,66.06
2022-12-25T15:36:13.987Z,62.68
2022-12-25T15:37:13.965Z,61.39
2022-12-25T15:38:14.270Z,62.20
2022-12-25T15:39:13.997Z,60.75
2022-12-25T15:40:14.049Z,67.03
2022-12-25T15:41:14.091Z,60.75
2022-12-25T15:42:14.625Z,59.30
2022-12-25T15:43:38.974Z,59.46
2022-12-25T15:44:16.012Z,60.75
2022-12-25T15:45:14.037Z,61.23
2022-12-25T15:46:14.031Z,66.71
2022-12-25T15:47:14.055Z,61.71
2022-12-25T15:48:13.978Z,60.59
2022-12-25T15:49:14.119Z,61.39
2022-12-25T15:50:14.054Z,63.00
2022-12-25T15:51:14.277Z,61.71
2022-12-25T15:52:13.901Z,59.46
2022-12-25T15:53:14.201Z,68.16
2022-12-25T15:54:14.015Z,61.87
2022-12-25T15:55:14.038Z,60.75
2022-12-25T15:56:14.008Z,61.55
2022-12-25T15:57:13.950Z,61.07
2022-12-25T15:58:13.974Z,59.78
2022-12-25T15:59:14.056Z,64.94
2022-12-25T16:00:14.017Z,62.20
2022-12-25T16:01:14.226Z,61.55
2022-12-25T16:02:14.075Z,61.55
2022-12-25T16:03:14.027Z,61.71
2022-12-25T16:04:14.042Z,60.59
2022-12-25T16:05:22.758Z,60.10
2022-12-25T16:06:15.011Z,58.65
2022-12-25T16:07:13.931Z,60.91
2022-12-25T16:08:14.055Z,60.10
2022-12-25T16:09:14.064Z,60.75
2022-12-25T16:10:19.018Z,60.42
2022-12-25T16:11:13.881Z,63.33
2022-12-25T16:12:13.791Z,60.26
2022-12-25T16:13:13.699Z,59.62
2022-12-25T16:14:13.931Z,60.10
2022-12-25T16:15:13.922Z,60.91
2022-12-25T16:16:13.784Z,65.10
2022-12-25T16:17:14.533Z,59.78
2022-12-25T16:18:13.876Z,61.87
2022-12-25T16:19:13.811Z,62.20
2022-12-25T16:20:13.696Z,64.13
2022-12-25T16:21:13.937Z,61.55
2022-12-25T16:22:13.702Z,63.81
2022-12-25T16:23:13.791Z,62.20
2022-12-25T16:24:13.935Z,62.04
2022-12-25T16:25:13.911Z,60.26
2022-12-25T16:26:13.735Z,61.71
2022-12-25T16:27:13.635Z,62.20
2022-12-25T16:28:14.094Z,61.87
2022-12-25T16:29:13.793Z,62.20
2022-12-25T16:30:13.634Z,61.39
2022-12-25T16:31:13.962Z,61.07
2022-12-25T16:32:14.000Z,60.91
2022-12-25T16:33:14.284Z,62.52
2022-12-25T16:34:13.755Z,63.16
2022-12-25T16:35:13.846Z,59.46
2022-12-25T16:36:13.560Z,60.26
2022-12-25T16:37:13.598Z,59.30
2022-12-25T16:38:13.577Z,60.10
2022-12-25T16:39:13.846Z,64.94
2022-12-25T16:40:13.558Z,60.91
2022-12-25T16:41:13.964Z,61.39
2022-12-25T16:42:13.560Z,59.46
2022-12-25T16:43:17.470Z,61.39
2022-12-25T16:44:14.790Z,58.97
2022-12-25T16:45:13.606Z,61.23
2022-12-25T16:46:13.633Z,66.06
2022-12-25T16:47:13.608Z,62.20
2022-12-25T16:48:13.564Z,62.20
2022-12-25T16:49:13.540Z,61.23
2022-12-25T16:50:13.597Z,59.78
2022-12-25T16:51:13.600Z,60.91
2022-12-25T16:52:14.519Z,60.26
2022-12-25T16:53:13.462Z,61.87
2022-12-25T16:54:13.558Z,60.75
2022-12-25T16:55:13.610Z,62.68
2022-12-25T16:56:13.441Z,61.71
2022-12-25T16:57:13.438Z,60.59
2022-12-25T16:58:14.131Z,61.23
2022-12-25T16:59:13.429Z,61.71
2022-12-25T17:00:13.426Z,64.78
2022-12-25T17:01:13.444Z,65.58
2022-12-25T17:02:13.496Z,62.52
2022-12-25T17:03:13.724Z,61.71
2022-12-25T17:04:13.474Z,61.55
2022-12-25T17:05:13.640Z,61.23
2022-12-25T17:06:13.414Z,62.20
2022-12-25T17:07:13.423Z,61.23
2022-12-25T17:08:13.458Z,61.71
2022-12-25T17:09:13.725Z,61.07
2022-12-25T17:10:13.425Z,61.71
2022-12-25T17:11:13.259Z,61.39
2022-12-25T17:12:13.387Z,59.30
2022-12-25T17:13:13.246Z,59.78
2022-12-25T17:14:13.328Z,60.59
2022-12-25T17:15:13.303Z,59.46
2022-12-25T17:16:13.317Z,61.87
2022-12-25T17:17:13.333Z,60.75
2022-12-25T17:18:13.237Z,62.36
2022-12-25T17:19:13.301Z,60.26
2022-12-25T17:20:13.262Z,65.74
2022-12-25T17:21:13.230Z,63.33
2022-12-25T17:22:13.263Z,61.55
2022-12-25T17:23:13.536Z,60.75
2022-12-25T17:24:13.328Z,60.26
2022-12-25T17:25:13.261Z,61.55
2022-12-25T17:26:13.344Z,59.78
2022-12-25T17:27:13.226Z,60.59
2022-12-25T17:28:13.917Z,59.78
2022-12-25T17:29:18.553Z,60.59
2022-12-25T17:30:15.208Z,62.04
2022-12-25T17:31:13.271Z,61.71
2022-12-25T17:32:13.173Z,61.55
2022-12-25T17:33:13.297Z,62.04
2022-12-25T17:34:13.221Z,60.42
2022-12-25T17:35:13.255Z,60.75
2022-12-25T17:36:13.208Z,59.94
2022-12-25T17:37:13.178Z,61.07
2022-12-25T17:38:13.137Z,60.26
2022-12-25T17:39:13.185Z,60.59
2022-12-25T17:40:13.191Z,61.71
2022-12-25T17:41:13.566Z,62.20
2022-12-25T17:42:13.197Z,60.91
2022-12-25T17:43:17.330Z,63.49
2022-12-25T17:44:15.247Z,59.30
2022-12-25T17:45:13.208Z,59.78
2022-12-25T17:46:13.127Z,61.23
2022-12-25T17:47:13.069Z,63.16
2022-12-25T17:48:13.152Z,60.91
2022-12-25T17:49:13.115Z,59.78
2022-12-25T17:50:13.185Z,60.42
2022-12-25T17:51:13.131Z,61.71
2022-12-25T17:52:13.053Z,61.23
2022-12-25T17:53:13.035Z,59.78
2022-12-25T17:54:13.106Z,61.71
2022-12-25T17:55:13.282Z,59.30
2022-12-25T17:56:13.341Z,61.71
2022-12-25T17:57:13.022Z,62.20
2022-12-25T17:58:13.038Z,58.81
2022-12-25T17:59:13.093Z,58.81
2022-12-25T18:00:13.957Z,60.59
2022-12-25T18:01:13.199Z,59.14
2022-12-25T18:02:13.277Z,62.36
2022-12-25T18:03:13.435Z,58.17
2022-12-25T18:04:13.413Z,61.07
2022-12-25T18:05:13.680Z,59.94
2022-12-25T18:06:12.969Z,63.65
2022-12-25T18:07:13.260Z,62.68
2022-12-25T18:08:13.416Z,62.84
2022-12-25T18:09:13.405Z,64.29
2022-12-25T18:10:13.457Z,60.91
2022-12-25T18:11:13.294Z,59.78
2022-12-25T18:12:12.993Z,58.33
2022-12-25T18:13:13.639Z,58.33
2022-12-25T18:14:13.570Z,59.62
2022-12-25T18:15:13.548Z,61.23
2022-12-25T18:16:14.039Z,60.10
2022-12-25T18:17:13.497Z,59.62
2022-12-25T18:18:13.204Z,59.78
2022-12-25T18:19:13.169Z,60.59
2022-12-25T18:20:12.947Z,62.84
2022-12-25T18:21:13.464Z,59.14
2022-12-25T18:22:13.707Z,58.49
2022-12-25T18:23:13.461Z,56.72
2022-12-25T18:24:13.453Z,57.85
2022-12-25T18:25:13.145Z,59.30
2022-12-25T18:26:13.446Z,59.46
2022-12-25T18:27:13.444Z,61.23
2022-12-25T18:28:13.482Z,59.62
2022-12-25T18:29:13.355Z,60.42
2022-12-25T18:30:13.414Z,58.97
2022-12-25T18:31:13.503Z,68.00
2022-12-25T18:32:13.182Z,64.94
2022-12-25T18:33:13.791Z,60.10
2022-12-25T18:34:12.943Z,58.97
2022-12-25T18:35:12.976Z,60.91
2022-12-25T18:36:12.987Z,60.10
2022-12-25T18:37:13.401Z,59.14
2022-12-25T18:38:13.064Z,60.59
2022-12-25T18:39:13.423Z,62.20
2022-12-25T18:40:13.327Z,61.39
2022-12-25T18:41:13.146Z,60.42
2022-12-25T18:42:12.838Z,63.33
2022-12-25T18:43:12.713Z,59.14
2022-12-25T18:44:12.752Z,59.14
2022-12-25T18:45:13.012Z,58.65
2022-12-25T18:46:14.287Z,59.78
2022-12-25T18:47:13.249Z,59.78
2022-12-25T18:48:14.345Z,61.39
2022-12-25T18:49:13.459Z,57.52
2022-12-25T18:50:13.315Z,58.17
2022-12-25T18:51:14.186Z,58.17
2022-12-25T18:52:47.928Z,57.85
2022-12-25T18:53:13.650Z,59.46
2022-12-25T18:54:13.228Z,59.46
2022-12-25T18:55:13.574Z,59.78
2022-12-25T18:56:13.035Z,59.78
2022-12-25T18:57:13.226Z,58.97
2022-12-25T18:58:12.805Z,57.36
2022-12-25T18:59:12.946Z,57.85
2022-12-25T19:00:12.615Z,59.30
2022-12-25T19:01:12.839Z,59.94
2022-12-25T19:02:12.903Z,58.81
2022-12-25T19:03:12.756Z,60.91
2022-12-25T19:04:13.047Z,60.10
2022-12-25T19:05:13.450Z,59.62
2022-12-25T19:06:13.208Z,60.10
2022-12-25T19:07:13.211Z,58.81
2022-12-25T19:08:12.890Z,60.75
2022-12-25T19:09:13.060Z,58.17
2022-12-25T19:10:12.568Z,59.30
2022-12-25T19:11:12.630Z,62.20
2022-12-25T19:12:12.576Z,57.52
2022-12-25T19:13:12.565Z,58.65
2022-12-25T19:14:13.153Z,59.14
2022-12-25T19:15:37.000Z,59.46
2022-12-25T19:16:13.047Z,58.97
2022-12-25T19:17:13.100Z,57.85
2022-12-25T19:18:13.083Z,58.49
2022-12-25T19:19:13.254Z,57.36
2022-12-25T19:20:12.807Z,57.36
2022-12-25T19:21:12.561Z,59.62
2022-12-25T19:22:12.677Z,61.23
2022-12-25T19:23:12.419Z,58.97
2022-12-25T19:24:12.804Z,58.33
2022-12-25T19:25:12.564Z,58.49
2022-12-25T19:26:12.542Z,60.91
2022-12-25T19:27:12.798Z,61.23
2022-12-25T19:28:12.872Z,59.30
2022-12-25T19:29:12.432Z,56.24
2022-12-25T19:30:12.788Z,58.65
2022-12-25T19:31:12.853Z,58.49
2022-12-25T19:32:12.989Z,60.59
2022-12-25T19:33:17.763Z,60.26
2022-12-25T19:34:14.780Z,57.69
2022-12-25T19:35:12.335Z,60.10
2022-12-25T19:36:12.758Z,57.69
2022-12-25T19:37:12.729Z,59.78
2022-12-25T19:38:12.345Z,59.30
2022-12-25T19:39:12.422Z,55.91
2022-12-25T19:40:13.965Z,60.42
2022-12-25T19:41:13.510Z,60.75
2022-12-25T19:42:12.526Z,58.81
2022-12-25T19:43:13.162Z,58.81
2022-12-25T19:44:12.857Z,60.10
2022-12-25T19:45:12.763Z,60.10
2022-12-25T19:46:12.788Z,63.33
2022-12-25T19:47:12.867Z,57.36
2022-12-25T19:48:12.503Z,57.69
2022-12-25T19:49:12.546Z,57.69
2022-12-25T19:50:12.807Z,57.69
2022-12-25T19:51:12.747Z,59.94
2022-12-25T19:52:12.740Z,58.65
2022-12-25T19:53:12.822Z,60.10
2022-12-25T19:54:13.944Z,57.20
2022-12-25T19:55:12.602Z,60.75
2022-12-25T19:56:12.366Z,61.71
2022-12-25T19:57:15.784Z,60.59
2022-12-25T19:58:12.104Z,58.33
2022-12-25T19:59:12.982Z,58.49
2022-12-25T20:00:12.651Z,58.33
2022-12-25T20:01:12.668Z,58.33
2022-12-25T20:02:12.805Z,57.20
2022-12-25T20:03:12.182Z,57.85
2022-12-25T20:04:12.384Z,56.07
2022-12-25T20:05:12.949Z,58.97
2022-12-25T20:06:12.370Z,58.65
2022-12-25T20:07:12.419Z,62.20
2022-12-25T20:08:12.342Z,57.69
2022-12-25T20:09:12.328Z,58.49
2022-12-25T20:10:12.970Z,58.81
2022-12-25T20:11:12.291Z,56.07
2022-12-25T20:12:12.469Z,57.69
2022-12-25T20:13:12.570Z,57.36
2022-12-25T20:14:12.389Z,58.17
2022-12-25T20:15:12.046Z,60.91
2022-12-25T20:16:12.392Z,64.29
2022-12-25T20:17:15.996Z,63.81
2022-12-25T20:18:13.229Z,64.78
2022-12-25T20:19:12.337Z,68.32
2022-12-25T20:20:12.041Z,59.78
2022-12-25T20:21:12.640Z,60.75
2022-12-25T20:22:12.262Z,61.23
2022-12-25T20:23:12.164Z,57.36